Time;durP1;ratioP1;P1;durP2;ratioP2;P2;SDS_P1;SDS_P2;PMS_P1;PMS_P2;Temp;Humidity;BMP_temperature;BMP_pressure;BME280_temperature;BME280_humidity;BME280_pressure;Samples;Min_cycle;Max_cycle;Signal;HPM_P1;HPM_P2
2023/01/13 00:00:03;;;;;;;0.20;0.20;;;9.70;99.90;9.60;99699.00;;;;4970601;28;87856;-65
2023/01/13 00:02:29;;;;;;;0.20;0.20;;;9.60;99.90;9.60;99699.00;;;;4975656;28;89205;-65
2023/01/13 00:04:54;;;;;;;0.40;0.20;;;9.60;99.90;9.60;99696.00;;;;4970370;28;117744;-66
2023/01/13 00:07:20;;;;;;;0.20;0.20;;;9.60;99.90;9.60;99696.00;;;;4972590;28;111349;-66
2023/01/13 00:09:46;;;;;;;0.23;0.23;;;9.70;99.90;9.70;99694.00;;;;4969142;28;108231;-65
2023/01/13 00:12:11;;;;;;;0.50;0.30;;;9.80;99.90;9.70;99688.00;;;;4968616;28;117222;-66
2023/01/13 00:14:37;;;;;;;0.23;0.23;;;9.80;99.90;9.70;99691.00;;;;4969897;28;116561;-66
2023/01/13 00:17:03;;;;;;;3.00;0.50;;;9.80;99.90;9.70;99699.00;;;;4971077;28;110018;-68
2023/01/13 00:19:29;;;;;;;0.10;0.10;;;9.70;99.90;9.80;99679.00;;;;4970319;28;109213;-67
2023/01/13 00:21:55;;;;;;;0.20;0.20;;;9.80;99.90;9.80;99675.00;;;;4970133;28;110387;-69
2023/01/13 00:24:20;;;;;;;0.20;0.17;;;9.80;99.90;9.80;99672.00;;;;4971305;28;116243;-67
2023/01/13 00:26:46;;;;;;;0.97;0.30;;;9.80;99.90;9.80;99682.00;;;;4972054;28;88138;-69
2023/01/13 00:29:12;;;;;;;0.50;0.20;;;9.80;99.90;9.80;99666.00;;;;4973129;28;87360;-67
2023/01/13 00:31:37;;;;;;;0.20;0.10;;;9.90;99.90;9.80;99687.00;;;;4969126;28;117340;-67
2023/01/13 00:34:03;;;;;;;0.27;0.17;;;9.90;99.90;9.90;99679.00;;;;4973709;28;117815;-68
2023/01/13 00:36:29;;;;;;;0.40;0.20;;;9.90;99.90;9.90;99685.00;;;;4972489;28;105428;-67
2023/01/13 00:38:55;;;;;;;0.37;0.10;;;10.00;99.90;9.90;99672.00;;;;4974296;28;88102;-69
2023/01/13 00:41:23;;;;;;;0.10;0.10;;;10.00;99.90;10.00;99680.00;;;;4972200;28;87993;-67
2023/01/13 00:43:49;;;;;;;0.40;0.27;;;10.10;99.90;10.00;99675.00;;;;4973352;28;104595;-68
2023/01/13 00:46:19;;;;;;;0.20;0.10;;;10.00;99.90;9.90;99685.00;;;;4971198;28;87651;-69
2023/01/13 00:48:46;;;;;;;0.10;0.10;;;10.00;99.90;9.90;99673.00;;;;4960796;28;88083;-67
2023/01/13 00:51:16;;;;;;;0.20;0.20;;;10.40;99.90;9.80;99673.00;;;;4972523;28;110644;-68
2023/01/13 00:53:46;;;;;;;0.10;0.10;;;9.80;99.90;9.70;99670.00;;;;4972378;28;88215;-68
2023/01/13 00:56:16;;;;;;;0.20;0.20;;;9.80;99.90;9.60;99678.00;;;;4975942;28;90404;-67
2023/01/13 00:58:44;;;;;;;0.20;0.20;;;9.70;99.90;9.50;99671.00;;;;4969670;28;87930;-68
2023/01/13 01:01:13;;;;;;;0.83;0.30;;;9.70;99.90;9.50;99666.00;;;;4968822;28;89072;-68
2023/01/13 01:03:39;;;;;;;0.10;0.10;;;9.60;99.90;9.40;99668.00;;;;4971675;28;88754;-67
2023/01/13 01:06:13;;;;;;;0.57;0.20;;;9.50;99.90;9.40;99678.00;;;;4971609;28;87748;-67
2023/01/13 01:08:39;;;;;;;0.30;0.30;;;9.50;99.90;9.30;99674.00;;;;4970452;28;101596;-68
2023/01/13 01:11:21;;;;;;;0.27;0.10;;;9.50;99.90;9.30;99675.00;;;;4969486;28;88884;-69
2023/01/13 01:13:50;;;;;;;0.10;0.10;;;9.40;99.90;9.30;99665.00;;;;4973293;28;90571;-68
2023/01/13 01:16:19;;;;;;;0.20;0.20;;;9.40;99.90;9.20;99667.00;;;;4967735;28;87791;-67
2023/01/13 01:18:48;;;;;;;0.20;0.10;;;9.30;99.90;9.20;99666.00;;;;4974935;28;87357;-66
2023/01/13 01:21:14;;;;;;;0.17;0.17;;;9.30;99.90;9.20;99674.00;;;;4973389;28;87875;-66
2023/01/13 01:23:41;;;;;;;0.10;0.10;;;9.30;99.90;9.20;99660.00;;;;4967769;28;105351;-68
2023/01/13 01:26:13;;;;;;;0.20;0.20;;;9.30;99.90;9.10;99662.00;;;;4969750;28;89065;-67
2023/01/13 01:28:39;;;;;;;1.63;0.20;;;9.20;99.90;9.10;99664.00;;;;4972437;28;87861;-68
2023/01/13 01:31:24;;;;;;;0.10;0.10;;;9.20;99.90;9.10;99665.00;;;;4970645;28;88136;-70
2023/01/13 01:33:54;;;;;;;1.07;0.20;;;9.20;99.90;9.10;99663.00;;;;4965268;28;87911;-71
2023/01/13 01:36:22;;;;;;;0.50;0.10;;;9.20;99.90;9.10;99652.00;;;;4968203;28;87914;-70
2023/01/13 01:38:49;;;;;;;0.20;0.17;;;9.10;99.90;9.00;99654.00;;;;4972196;28;87960;-68
2023/01/13 01:41:18;;;;;;;0.20;0.17;;;9.10;99.90;9.00;99652.00;;;;4966611;28;95301;-71
2023/01/13 01:44:20;;;;;;;0.10;0.10;;;9.10;99.90;9.00;99647.00;;;;4973502;28;88617;-72
2023/01/13 01:46:46;;;;;;;1.93;0.33;;;9.10;99.90;9.00;99651.00;;;;4968601;28;87771;-72
2023/01/13 01:49:34;;;;;;;0.17;0.10;;;9.10;99.90;9.00;99654.00;;;;4970147;28;108654;-71
2023/01/13 01:52:17;;;;;;;1.77;0.50;;;9.10;99.90;9.00;99656.00;;;;4970650;28;117654;-71
2023/01/13 01:54:55;;;;;;;1.07;0.30;;;9.10;99.90;9.00;99655.00;;;;4971458;28;109910;-70
2023/01/13 01:57:34;;;;;;;0.10;0.10;;;9.10;99.90;9.00;99646.00;;;;4971660;28;87937;-71
2023/01/13 02:00:01;;;;;;;0.57;0.40;;;9.10;99.90;9.10;99638.00;;;;4953437;28;97316;-70
2023/01/13 02:02:28;;;;;;;0.20;0.20;;;9.10;99.90;9.10;99653.00;;;;4970612;28;88648;-71
2023/01/13 02:04:55;;;;;;;0.13;0.13;;;9.20;99.90;9.20;99642.00;;;;4968639;28;116936;-71
2023/01/13 02:07:27;;;;;;;0.20;0.10;;;9.20;99.90;9.20;99637.00;;;;4966826;28;87772;-71
2023/01/13 02:09:55;;;;;;;0.07;0.07;;;9.30;99.90;9.30;99628.00;;;;4968238;28;88057;-70
2023/01/13 02:12:31;;;;;;;1.40;0.53;;;9.30;99.90;9.30;99622.00;;;;4973494;28;95763;-72
2023/01/13 02:15:20;;;;;;;0.20;0.20;;;9.40;99.90;9.40;99623.00;;;;4969313;28;87820;-72
2023/01/13 02:18:36;;;;;;;0.20;0.20;;;9.40;99.90;9.40;99624.00;;;;4971779;28;88834;-71
2023/01/13 02:21:43;;;;;;;0.40;0.27;;;9.50;99.90;9.30;99621.00;;;;4966265;28;95396;-70
2023/01/13 02:25:17;;;;;;;1.70;0.40;;;9.50;99.90;9.30;99630.00;;;;4968306;28;95501;-71
2023/01/13 02:27:52;;;;;;;0.10;0.10;;;9.50;99.90;9.40;99611.00;;;;4949191;28;87813;-72
2023/01/13 02:34:00;;;;;;;0.10;0.10;;;9.50;99.90;9.30;99613.00;;;;4968486;28;89218;-71
2023/01/13 02:36:46;;;;;;;0.10;0.10;;;9.50;99.90;9.40;99609.00;;;;4935633;28;88786;-71
2023/01/13 02:39:21;;;;;;;0.10;0.10;;;9.40;99.90;9.40;99605.00;;;;4971526;28;109723;-70
2023/01/13 02:45:22;;;;;;;0.73;0.17;;;9.50;99.90;9.50;99597.00;;;;4972170;28;87709;-70
2023/01/13 02:47:50;;;;;;;0.10;0.10;;;9.50;99.90;9.50;99594.00;;;;4976893;28;88939;-70
2023/01/13 02:50:19;;;;;;;0.10;0.10;;;9.60;99.90;9.50;99594.00;;;;4979111;28;87892;-70
2023/01/13 02:52:57;;;;;;;0.20;0.20;;;9.60;99.90;9.60;99582.00;;;;4971972;28;103467;-70
2023/01/13 02:55:33;;;;;;;0.00;0.00;;;9.70;99.90;9.60;99587.00;;;;4970294;28;94557;-69
2023/01/13 02:58:01;;;;;;;0.10;0.10;;;9.70;99.90;9.60;99575.00;;;;4971661;28;106273;-68
2023/01/13 03:00:28;;;;;;;0.20;0.20;;;9.70;99.90;9.70;99578.00;;;;4972806;28;106409;-69
2023/01/13 03:02:53;;;;;;;0.03;0.03;;;9.60;99.90;9.70;99588.00;;;;4972273;28;87875;-70
2023/01/13 03:05:19;;;;;;;0.10;0.10;;;9.80;99.90;9.70;99582.00;;;;4969867;28;107106;-67
2023/01/13 03:08:16;;;;;;;0.27;0.17;;;9.70;99.90;9.80;99580.00;;;;4970958;28;109372;-69
2023/01/13 03:11:05;;;;;;;0.37;0.20;;;9.80;99.90;9.80;99582.00;;;;4972290;28;88439;-67
2023/01/13 03:13:54;;;;;;;1.10;0.27;;;9.90;99.90;9.90;99581.00;;;;4969568;28;88908;-67
2023/01/13 03:16:30;;;;;;;0.10;0.10;;;10.00;99.90;10.00;99572.00;;;;4973076;28;89491;-67
2023/01/13 03:19:26;;;;;;;0.53;0.17;;;10.00;99.90;10.00;99566.00;;;;4971550;28;88441;-67
2023/01/13 03:22:14;;;;;;;1.23;0.40;;;10.10;99.90;10.10;99584.00;;;;4971278;28;110457;-66
2023/01/13 03:25:08;;;;;;;0.00;0.00;;;10.20;99.90;10.10;99571.00;;;;4970729;28;87959;-67
2023/01/13 03:27:49;;;;;;;0.17;0.17;;;10.20;99.90;10.10;99573.00;;;;4936383;28;100993;-66
2023/01/13 03:30:34;;;;;;;0.00;0.00;;;10.20;99.90;10.20;99579.00;;;;4967678;28;105704;-66
2023/01/13 03:33:13;;;;;;;0.77;0.20;;;10.20;99.90;10.20;99574.00;;;;4975453;28;113245;-66
2023/01/13 03:35:44;;;;;;;0.10;0.10;;;10.30;99.90;10.30;99580.00;;;;4973144;28;87858;-67
2023/01/13 03:38:24;;;;;;;3.43;0.10;;;10.30;99.90;10.30;99582.00;;;;4971491;28;91184;-67
2023/01/13 03:41:00;;;;;;;0.77;0.33;;;10.40;99.90;10.30;99579.00;;;;4984675;27;110373;-66
2023/01/13 03:46:42;;;;;;;0.00;0.00;;;10.40;99.90;10.40;99578.00;;;;4973620;28;87874;-67
2023/01/13 03:49:11;;;;;;;0.00;0.00;;;10.40;99.90;10.40;99576.00;;;;4973886;28;87977;-67
2023/01/13 03:51:40;;;;;;;0.00;0.00;;;10.50;99.90;10.50;99578.00;;;;4956086;28;111417;-66
2023/01/13 03:54:10;;;;;;;0.10;0.10;;;10.50;99.90;10.50;99577.00;;;;4977416;28;88799;-67
2023/01/13 03:56:44;;;;;;;0.30;0.20;;;10.50;99.90;10.60;99565.00;;;;4975287;28;88154;-68
2023/01/13 03:59:17;;;;;;;0.10;0.10;;;10.60;99.90;10.60;99567.00;;;;4969867;28;103842;-65
2023/01/13 04:01:54;;;;;;;0.10;0.10;;;10.60;99.90;10.60;99583.00;;;;4972533;28;105240;-67
2023/01/13 04:04:43;;;;;;;0.03;0.03;;;10.60;99.90;10.60;99583.00;;;;4970684;28;97323;-67
2023/01/13 04:07:33;;;;;;;0.10;0.10;;;10.70;99.90;10.70;99581.00;;;;4968231;28;103861;-65
2023/01/13 04:10:03;;;;;;;0.80;0.30;;;10.80;99.90;10.70;99578.00;;;;4971849;28;90557;-67
2023/01/13 04:15:22;;;;;;;0.00;0.00;;;10.80;99.90;10.70;99578.00;;;;4971651;28;87891;-67
2023/01/13 04:17:48;;;;;;;0.10;0.10;;;10.80;99.90;10.80;99587.00;;;;4976799;28;87936;-68
2023/01/13 04:20:15;;;;;;;0.00;0.00;;;10.80;99.90;10.80;99587.00;;;;4967957;28;94218;-66
2023/01/13 04:22:40;;;;;;;0.03;0.03;;;10.80;99.90;10.80;99585.00;;;;4968115;28;88846;-66
2023/01/13 04:25:07;;;;;;;0.10;0.10;;;10.80;99.90;10.80;99590.00;;;;4965293;28;116163;-66
2023/01/13 04:27:32;;;;;;;0.20;0.20;;;10.80;99.90;10.80;99603.00;;;;4973535;28;100979;-65
2023/01/13 04:29:58;;;;;;;1.60;0.20;;;10.90;99.90;10.80;99597.00;;;;4970348;28;109246;-67
2023/01/13 04:32:24;;;;;;;0.10;0.10;;;10.90;99.90;10.80;99589.00;;;;4967125;28;118721;-66
2023/01/13 04:34:49;;;;;;;1.27;0.33;;;10.90;99.90;10.80;99594.00;;;;4966697;28;116368;-67
2023/01/13 04:37:15;;;;;;;0.37;0.10;;;10.90;99.90;10.80;99591.00;;;;4972143;28;109374;-67
2023/01/13 04:39:41;;;;;;;0.03;0.03;;;10.90;99.90;10.80;99589.00;;;;4969778;28;87787;-65
2023/01/13 04:42:06;;;;;;;0.20;0.10;;;10.90;99.90;10.90;99591.00;;;;4966295;28;116013;-66
2023/01/13 04:44:34;;;;;;;0.00;0.00;;;10.90;99.90;10.90;99582.00;;;;4971644;28;117581;-65
2023/01/13 04:47:01;;;;;;;0.10;0.10;;;10.90;99.90;10.90;99584.00;;;;4973613;28;87647;-65
2023/01/13 04:49:27;;;;;;;2.87;0.20;;;10.90;99.90;10.90;99591.00;;;;4973023;28;87478;-66
2023/01/13 04:51:53;;;;;;;0.53;0.10;;;11.00;99.90;10.90;99595.00;;;;4974476;28;102805;-65
2023/01/13 04:54:18;;;;;;;0.00;0.00;;;10.90;99.90;10.90;99587.00;;;;4971000;28;117988;-66
2023/01/13 04:56:44;;;;;;;0.10;0.10;;;11.00;99.90;11.00;99590.00;;;;4973305;28;109582;-65
2023/01/13 04:59:11;;;;;;;0.00;0.00;;;11.00;99.90;11.00;99587.00;;;;4971043;28;105681;-65
2023/01/13 05:01:37;;;;;;;1.97;0.17;;;11.00;99.90;11.00;99598.00;;;;4970872;28;103286;-65
2023/01/13 05:04:04;;;;;;;0.00;0.00;;;11.00;99.90;11.00;99585.00;;;;4970417;28;88025;-65
2023/01/13 05:06:29;;;;;;;0.20;0.10;;;11.00;99.90;11.00;99607.00;;;;4972695;28;88744;-67
2023/01/13 05:08:56;;;;;;;0.00;0.00;;;11.10;99.90;11.00;99598.00;;;;4967102;28;108586;-65
2023/01/13 05:17:00;;;;;;;0.10;0.10;;;11.20;99.90;11.00;99591.00;;;;4973119;28;87708;-67
2023/01/13 05:19:34;;;;;;;0.00;0.00;;;11.10;99.90;11.00;99595.00;;;;4974503;28;88225;-68
2023/01/13 05:27:30;;;;;;;0.00;0.00;;;11.10;99.90;11.00;99606.00;;;;4973701;28;87774;-65
2023/01/13 05:29:56;;;;;;;0.10;0.10;;;11.10;99.90;11.00;99598.00;;;;4972515;28;95542;-66
2023/01/13 05:32:22;;;;;;;0.20;0.20;;;11.00;99.90;11.00;99583.00;;;;4975198;28;90347;-67
2023/01/13 05:34:48;;;;;;;0.10;0.10;;;11.10;99.90;11.00;99595.00;;;;4972508;28;88049;-68
2023/01/13 05:37:15;;;;;;;0.87;0.30;;;11.00;99.90;11.00;99603.00;;;;4972321;28;96414;-66
2023/01/13 05:45:10;;;;;;;0.10;0.10;;;11.00;99.90;11.00;99599.00;;;;4970837;28;88958;-67
2023/01/13 05:47:36;;;;;;;1.40;0.20;;;11.00;99.90;11.00;99593.00;;;;4969148;28;89094;-67
2023/01/13 05:50:02;;;;;;;0.00;0.00;;;11.00;99.90;11.00;99594.00;;;;4971324;28;95922;-67
2023/01/13 05:52:28;;;;;;;0.10;0.10;;;11.00;99.90;11.00;99608.00;;;;4968977;28;88516;-66
2023/01/13 05:54:54;;;;;;;0.53;0.20;;;11.10;99.90;11.10;99591.00;;;;4967073;28;117151;-67
2023/01/13 05:57:20;;;;;;;0.10;0.10;;;11.10;99.90;11.10;99591.00;;;;4971093;28;94940;-66
2023/01/13 05:59:45;;;;;;;0.23;0.10;;;11.10;99.90;11.10;99598.00;;;;4969917;28;108647;-67
2023/01/13 06:02:11;;;;;;;0.10;0.10;;;11.10;99.90;11.10;99592.00;;;;4974306;28;117614;-67
2023/01/13 06:04:37;;;;;;;0.10;0.10;;;11.10;99.90;11.10;99604.00;;;;4970548;28;117780;-67
2023/01/13 06:07:02;;;;;;;0.40;0.03;;;11.10;99.90;11.00;99605.00;;;;4968313;28;109151;-65
2023/01/13 06:09:28;;;;;;;0.10;0.10;;;11.10;99.90;11.00;99616.00;;;;4965822;28;109772;-66
2023/01/13 06:11:54;;;;;;;0.27;0.10;;;11.10;99.90;11.00;99611.00;;;;4969142;28;108133;-66
2023/01/13 06:14:19;;;;;;;0.40;0.07;;;11.10;99.90;11.00;99606.00;;;;4968850;28;113586;-66
2023/01/13 06:16:45;;;;;;;0.10;0.10;;;11.10;99.90;11.00;99604.00;;;;4973502;28;110482;-66
2023/01/13 06:19:14;;;;;;;0.40;0.30;;;11.10;99.90;11.00;99615.00;;;;4970279;28;108719;-68
2023/01/13 06:21:40;;;;;;;0.10;0.10;;;11.20;99.90;11.00;99611.00;;;;4967542;28;88797;-67
2023/01/13 06:24:07;;;;;;;0.43;0.30;;;11.10;99.90;11.00;99617.00;;;;4970270;28;87887;-68
2023/01/13 06:26:39;;;;;;;0.07;0.07;;;11.10;99.90;11.00;99607.00;;;;4969634;28;97584;-68
2023/01/13 06:29:07;;;;;;;0.10;0.10;;;11.10;99.90;11.00;99608.00;;;;4968564;28;87002;-66
2023/01/13 06:31:36;;;;;;;0.07;0.07;;;11.10;99.90;11.00;99607.00;;;;4973015;28;89164;-68
2023/01/13 06:34:10;;;;;;;0.80;0.30;;;11.10;99.90;11.00;99614.00;;;;4971912;28;117479;-68
2023/01/13 06:36:40;;;;;;;0.27;0.20;;;11.00;99.90;11.00;99599.00;;;;4973120;28;89053;-69
2023/01/13 06:39:09;;;;;;;0.40;0.33;;;11.00;99.90;10.90;99603.00;;;;4971114;28;100900;-68
2023/01/13 06:43:13;;;;;;;0.10;0.10;;;11.00;99.90;10.90;99613.00;;;;4971362;28;87921;-69
2023/01/13 06:44:23;;;;;;;0.00;0.00;;;10.90;99.90;10.90;99603.00;;;;4969927;28;87790;-68
2023/01/13 06:46:51;;;;;;;0.00;0.00;;;10.90;99.90;10.90;99599.00;;;;4970525;28;110685;-69
2023/01/13 06:49:16;;;;;;;0.03;0.03;;;10.90;99.90;10.90;99611.00;;;;4973168;28;87929;-66
2023/01/13 06:51:42;;;;;;;0.10;0.10;;;10.90;99.90;10.80;99610.00;;;;4973090;28;88192;-68
2023/01/13 06:54:08;;;;;;;0.73;0.20;;;10.80;99.90;10.80;99603.00;;;;4972764;28;88577;-68
2023/01/13 06:56:34;;;;;;;1.17;0.40;;;10.90;99.90;10.80;99609.00;;;;4973634;28;109977;-67
2023/01/13 06:58:59;;;;;;;0.27;0.27;;;10.80;99.90;10.80;99607.00;;;;4973583;28;109034;-66
2023/01/13 07:01:25;;;;;;;0.30;0.30;;;10.90;99.90;10.80;99602.00;;;;4971311;28;118495;-68
2023/01/13 07:03:51;;;;;;;0.10;0.10;;;10.80;99.90;10.80;99598.00;;;;4956180;28;117883;-67
2023/01/13 07:06:16;;;;;;;0.00;0.00;;;10.80;99.90;10.80;99603.00;;;;4972413;28;97661;-66
2023/01/13 07:08:42;;;;;;;0.67;0.20;;;10.80;99.90;10.80;99612.00;;;;4968406;28;88010;-68
2023/01/13 07:11:08;;;;;;;1.03;0.27;;;10.80;99.90;10.80;99605.00;;;;4972466;28;117230;-69
2023/01/13 07:16:18;;;;;;;0.10;0.10;;;10.90;99.90;10.80;99606.00;;;;4974757;28;87755;-69
2023/01/13 07:18:44;;;;;;;0.10;0.10;;;10.90;99.90;10.90;99606.00;;;;4972708;28;110257;-67
2023/01/13 07:21:12;;;;;;;0.30;0.30;;;10.90;99.90;10.90;99601.00;;;;4971667;28;104673;-68
2023/01/13 07:23:39;;;;;;;0.20;0.20;;;10.90;99.90;10.90;99614.00;;;;4970706;28;89578;-68
2023/01/13 07:26:09;;;;;;;0.20;0.20;;;10.90;99.90;10.90;99605.00;;;;4973394;28;88897;-67
2023/01/13 07:28:37;;;;;;;0.10;0.10;;;11.00;99.90;11.00;99607.00;;;;4972995;28;87829;-67
2023/01/13 07:31:03;;;;;;;0.20;0.20;;;11.00;99.90;11.00;99624.00;;;;4986015;28;88248;-69
2023/01/13 07:33:32;;;;;;;0.30;0.10;;;11.00;99.90;11.00;99610.00;;;;4976403;28;105004;-67
2023/01/13 07:36:01;;;;;;;0.10;0.10;;;11.00;99.90;11.00;99612.00;;;;4971656;28;88023;-67
2023/01/13 07:38:28;;;;;;;0.40;0.30;;;11.10;99.90;11.00;99609.00;;;;4973552;28;87868;-68
2023/01/13 07:40:53;;;;;;;0.30;0.20;;;11.10;99.90;11.00;99609.00;;;;4972549;28;88124;-68
2023/01/13 07:43:32;;;;;;;0.30;0.20;;;11.10;99.90;11.00;99600.00;;;;4973270;28;115764;-67
2023/01/13 07:46:04;;;;;;;0.00;0.00;;;11.10;99.90;11.00;99605.00;;;;4972778;28;87946;-67
2023/01/13 07:48:34;;;;;;;0.10;0.10;;;11.10;99.90;11.00;99604.00;;;;4968888;28;87781;-69
2023/01/13 07:51:08;;;;;;;1.03;0.30;;;11.10;99.90;11.00;99600.00;;;;4971353;28;89459;-67
2023/01/13 07:53:35;;;;;;;0.77;0.30;;;11.00;99.90;11.00;99586.00;;;;4967997;28;90980;-68
2023/01/13 07:56:02;;;;;;;1.40;0.40;;;11.00;99.90;11.00;99597.00;;;;4953452;28;104344;-69
2023/01/13 07:58:28;;;;;;;0.20;0.20;;;11.00;99.90;11.10;99598.00;;;;4967097;28;87776;-70
2023/01/13 08:00:55;;;;;;;0.30;0.30;;;11.00;99.90;11.10;99588.00;;;;4973491;28;88662;-68
2023/01/13 08:03:22;;;;;;;0.37;0.20;;;11.10;99.90;11.10;99604.00;;;;4970596;28;90157;-66
2023/01/13 08:05:47;;;;;;;0.10;0.10;;;11.20;99.90;11.20;99606.00;;;;4972659;28;88018;-67
2023/01/13 08:08:14;;;;;;;0.40;0.10;;;11.10;99.90;11.30;99605.00;;;;4967991;28;109039;-67
2023/01/13 08:10:39;;;;;;;0.03;0.03;;;11.30;99.90;11.40;99603.00;;;;4965691;28;90105;-68
2023/01/13 08:13:19;;;;;;;0.20;0.10;;;11.30;99.90;11.40;99610.00;;;;4965926;28;106777;-67
2023/01/13 08:15:51;;;;;;;0.00;0.00;;;11.40;99.90;11.50;99609.00;;;;4968988;28;88621;-66
2023/01/13 08:18:21;;;;;;;0.10;0.10;;;11.50;99.90;11.60;99613.00;;;;4970406;28;97022;-66
2023/01/13 08:20:48;;;;;;;0.10;0.00;;;11.50;99.90;11.60;99605.00;;;;4969999;28;87975;-67
2023/01/13 08:23:14;;;;;;;0.47;0.10;;;11.60;99.90;11.60;99601.00;;;;4969625;27;88715;-67
2023/01/13 08:25:40;;;;;;;0.00;0.00;;;11.70;99.90;11.60;99606.00;;;;4968275;28;87785;-67
2023/01/13 08:28:06;;;;;;;0.20;0.20;;;11.60;99.90;11.70;99612.00;;;;4967702;28;87935;-67
2023/01/13 08:30:31;;;;;;;0.00;0.00;;;11.70;99.90;11.70;99614.00;;;;4973948;28;110283;-69
2023/01/13 08:32:57;;;;;;;0.40;0.10;;;11.70;99.90;11.70;99618.00;;;;4974511;28;116901;-68
2023/01/13 08:35:23;;;;;;;0.00;0.00;;;11.70;99.90;11.70;99617.00;;;;4986417;27;108969;-67
2023/01/13 08:37:49;;;;;;;0.10;0.10;;;11.70;99.90;11.70;99622.00;;;;4978774;28;87902;-67
2023/01/13 08:40:17;;;;;;;0.13;0.10;;;11.70;99.90;11.70;99623.00;;;;4971225;28;89130;-67
2023/01/13 08:42:43;;;;;;;0.13;0.13;;;11.70;99.90;11.60;99632.00;;;;4973224;28;89580;-68
2023/01/13 08:45:10;;;;;;;0.40;0.40;;;11.70;99.90;11.50;99629.00;;;;4969080;28;109084;-67
2023/01/13 08:47:35;;;;;;;0.73;0.37;;;11.60;99.90;11.40;99639.00;;;;4969376;28;100396;-67
2023/01/13 08:50:02;;;;;;;0.10;0.10;;;11.50;99.90;11.20;99649.00;;;;4971839;28;89379;-68
2023/01/13 08:52:28;;;;;;;0.10;0.10;;;11.40;99.90;10.90;99666.00;;;;4970475;28;88680;-68
2023/01/13 08:54:54;;;;;;;0.10;0.10;;;11.10;99.90;10.60;99687.00;;;;4965643;28;97932;-70
2023/01/13 08:57:20;;;;;;;0.00;0.00;;;10.80;99.90;10.20;99720.00;;;;4970579;28;108309;-67
2023/01/13 08:59:46;;;;;;;0.40;0.17;;;10.50;99.90;9.90;99729.00;;;;4973935;28;116698;-68
2023/01/13 09:02:15;;;;;;;0.10;0.10;;;10.20;99.90;9.60;99729.00;;;;4973509;28;90872;-67
2023/01/13 09:04:40;;;;;;;0.00;0.00;;;9.90;99.90;9.40;99731.00;;;;4974403;28;88893;-65
2023/01/13 09:07:06;;;;;;;0.00;0.00;;;9.70;99.90;9.30;99740.00;;;;4975041;28;108459;-68
2023/01/13 09:09:32;;;;;;;0.00;0.00;;;9.50;99.90;9.10;99740.00;;;;4966821;28;88577;-66
2023/01/13 09:14:42;;;;;;;0.20;0.10;;;9.20;99.90;8.90;99748.00;;;;4971920;28;90772;-65
2023/01/13 09:17:08;;;;;;;2.30;0.27;;;9.00;99.90;8.80;99739.00;;;;4968635;28;107836;-65
2023/01/13 09:19:34;;;;;;;0.70;0.20;;;8.90;99.90;8.70;99744.00;;;;4968373;28;89007;-65
2023/01/13 09:22:00;;;;;;;0.93;0.20;;;8.80;99.90;8.70;99735.00;;;;4970284;28;88874;-66
2023/01/13 09:24:25;;;;;;;0.27;0.10;;;8.80;99.90;8.60;99733.00;;;;4972170;28;110643;-67
2023/01/13 09:26:51;;;;;;;1.17;0.30;;;8.80;99.90;8.70;99735.00;;;;4973059;28;109039;-68
2023/01/13 09:29:17;;;;;;;0.40;0.17;;;8.80;99.90;8.70;99720.00;;;;4964270;28;116419;-67
2023/01/13 09:31:43;;;;;;;0.67;0.20;;;8.80;99.90;8.70;99726.00;;;;4973750;28;88617;-67
2023/01/13 09:36:59;;;;;;;1.40;0.47;;;8.80;99.90;8.70;99718.00;;;;4971734;28;87730;-67
2023/01/13 09:39:25;;;;;;;0.20;0.10;;;8.80;99.90;8.70;99713.00;;;;4972477;28;94226;-65
2023/01/13 09:45:22;;;;;;;0.00;0.00;;;8.80;99.90;8.60;99703.00;;;;4974237;28;87802;-65
2023/01/13 09:48:10;;;;;;;0.80;0.40;;;8.80;99.90;8.60;99693.00;;;;4974569;28;86914;-64
2023/01/13 09:51:15;;;;;;;0.77;0.40;;;8.70;99.90;8.50;99742.00;;;;4970054;28;105447;-68
2023/01/13 09:53:56;;;;;;;0.23;0.23;;;8.60;99.90;8.50;99754.00;;;;4972502;28;88028;-67
2023/01/13 09:56:23;;;;;;;0.10;0.10;;;8.60;99.90;8.50;99761.00;;;;4972296;28;90010;-66
2023/01/13 09:58:49;;;;;;;0.53;0.10;;;8.60;99.90;8.50;99766.00;;;;4974071;28;108865;-66
2023/01/13 10:01:28;;;;;;;0.23;0.13;;;8.60;99.90;8.50;99765.00;;;;4972826;28;87889;-65
2023/01/13 10:03:54;;;;;;;0.20;0.20;;;8.60;99.90;8.50;99755.00;;;;4971763;28;88754;-65
2023/01/13 10:06:32;;;;;;;0.80;0.20;;;8.60;99.90;8.50;99739.00;;;;4971674;28;110451;-66
2023/01/13 10:08:58;;;;;;;0.20;0.20;;;8.50;99.90;8.40;99740.00;;;;4975736;28;87886;-66
2023/01/13 10:14:31;;;;;;;0.97;0.20;;;8.50;99.90;8.30;99751.00;;;;4970878;28;87508;-65
2023/01/13 10:17:25;;;;;;;0.30;0.27;;;8.50;99.90;8.20;99756.00;;;;4974418;28;88719;-65
2023/01/13 10:20:06;;;;;;;0.50;0.30;;;8.40;99.90;8.20;99762.00;;;;4959432;28;96215;-66
2023/01/13 10:22:58;;;;;;;0.30;0.17;;;8.30;99.90;8.10;99764.00;;;;4967988;28;96865;-65
2023/01/13 10:25:54;;;;;;;0.30;0.20;;;8.30;99.90;8.00;99742.00;;;;4966742;28;96509;-67
2023/01/13 10:28:22;;;;;;;0.20;0.20;;;8.20;99.90;8.00;99726.00;;;;4972004;28;99957;-67
2023/01/13 10:30:48;;;;;;;0.40;0.10;;;8.20;99.90;8.00;99724.00;;;;4972071;28;87960;-67
2023/01/13 10:33:16;;;;;;;1.17;0.37;;;8.10;99.90;7.90;99721.00;;;;4970812;28;106414;-66
2023/01/13 10:36:00;;;;;;;0.20;0.20;;;8.00;99.90;7.80;99713.00;;;;4973640;28;89084;-66
2023/01/13 10:38:35;;;;;;;0.83;0.20;;;7.90;99.90;7.80;99715.00;;;;4966996;28;105217;-65
2023/01/13 10:41:16;;;;;;;0.03;0.03;;;7.90;99.90;7.80;99698.00;;;;4968629;28;91434;-65
2023/01/13 10:43:43;;;;;;;0.00;0.00;;;7.90;99.90;7.80;99697.00;;;;4966138;28;88894;-66
2023/01/13 10:46:17;;;;;;;1.13;0.27;;;7.90;99.90;7.80;99707.00;;;;4967721;28;101313;-65
2023/01/13 10:48:55;;;;;;;0.30;0.30;;;7.90;99.90;7.70;99707.00;;;;4969967;28;88968;-66
2023/01/13 10:51:42;;;;;;;0.40;0.30;;;7.90;99.90;7.70;99697.00;;;;4970620;28;87607;-66
2023/01/13 10:54:11;;;;;;;0.00;0.00;;;7.90;99.90;7.70;99688.00;;;;4972311;28;88183;-66
2023/01/13 10:56:43;;;;;;;0.53;0.30;;;7.80;99.90;7.70;99695.00;;;;4969672;28;88075;-68
2023/01/13 10:59:25;;;;;;;0.00;0.00;;;7.80;99.90;7.70;99700.00;;;;4968305;28;87731;-66
2023/01/13 11:01:58;;;;;;;0.10;0.10;;;8.20;99.90;7.70;99671.00;;;;4973222;28;87682;-66
2023/01/13 11:04:37;;;;;;;0.30;0.10;;;7.70;99.90;7.70;99663.00;;;;4968873;28;87748;-67
2023/01/13 11:07:15;;;;;;;0.10;0.10;;;7.80;99.90;7.70;99657.00;;;;4974048;28;87906;-67
2023/01/13 11:09:41;;;;;;;0.60;0.30;;;7.80;99.90;7.60;99637.00;;;;4970145;28;101143;-67
2023/01/13 11:12:31;;;;;;;0.93;0.40;;;8.00;99.90;7.60;99645.00;;;;4969208;28;107828;-66
2023/01/13 11:15:01;;;;;;;0.50;0.50;;;7.70;99.90;7.60;99656.00;;;;4952963;28;88702;-65
2023/01/13 11:17:44;;;;;;;0.20;0.20;;;7.80;99.90;7.60;99664.00;;;;4974911;28;89693;-66
2023/01/13 11:20:37;;;;;;;0.20;0.20;;;7.70;99.90;7.60;99659.00;;;;4974335;28;87896;-66
2023/01/13 11:23:26;;;;;;;0.60;0.40;;;7.70;99.90;7.60;99664.00;;;;4975819;28;100245;-66
2023/01/13 11:26:01;;;;;;;0.50;0.33;;;7.70;99.90;7.60;99666.00;;;;4969908;28;89263;-65
2023/01/13 11:28:56;;;;;;;0.73;0.40;;;7.70;99.90;7.60;99669.00;;;;4968958;28;88339;-66
2023/01/13 11:31:47;;;;;;;0.20;0.10;;;7.70;99.90;7.60;99678.00;;;;4972894;28;88164;-66
2023/01/13 11:34:36;;;;;;;0.50;0.37;;;7.70;99.90;7.60;99680.00;;;;4970319;28;87297;-66
2023/01/13 11:37:23;;;;;;;0.00;0.00;;;7.80;99.90;7.60;99688.00;;;;4972892;28;88671;-65
2023/01/13 11:40:04;;;;;;;1.20;0.20;;;7.70;99.90;7.70;99694.00;;;;4971521;28;87769;-65
2023/01/13 11:43:06;;;;;;;0.47;0.20;;;7.80;99.90;7.70;99705.00;;;;4969985;28;88552;-67
2023/01/13 11:45:52;;;;;;;0.27;0.23;;;7.80;99.90;7.70;99705.00;;;;4970067;28;87824;-65
2023/01/13 11:48:25;;;;;;;1.07;0.20;;;7.90;99.90;7.80;99700.00;;;;4955898;28;88112;-65
2023/01/13 11:51:12;;;;;;;0.40;0.20;;;8.00;99.90;7.80;99706.00;;;;4968063;28;88797;-65
2023/01/13 11:54:08;;;;;;;0.97;0.53;;;7.90;99.90;7.80;99694.00;;;;4970719;28;87845;-66
2023/01/13 11:57:08;;;;;;;0.67;0.33;;;8.00;99.90;7.80;99689.00;;;;4974891;28;90276;-67
2023/01/13 12:00:08;;;;;;;0.90;0.10;;;8.00;99.90;7.90;99698.00;;;;4970669;28;96293;-66
2023/01/13 12:02:49;;;;;;;0.33;0.20;;;8.10;99.90;7.90;99699.00;;;;4957500;28;87434;-66
2023/01/13 12:05:22;;;;;;;0.00;0.00;;;8.10;99.90;8.00;99705.00;;;;4976965;28;87830;-66